sensor_id;sensor_type;location;lat;lon;timestamp;pressure;altitude;pressure_sealevel;temperature;humidity
11523;BME280;70090;43.208;27.904;2023-12-07T00:02:21;100585.00;;;10.93;100.00
11523;BME280;70090;43.208;27.904;2023-12-07T00:04:48;100593.28;;;10.93;100.00
11523;BME280;70090;43.208;27.904;2023-12-07T00:07:17;100594.53;;;10.99;100.00
11523;BME280;70090;43.208;27.904;2023-12-07T00:09:44;100586.28;;;11.35;100.00
11523;BME280;70090;43.208;27.904;2023-12-07T00:12:11;100591.34;;;11.33;100.00
11523;BME280;70090;43.208;27.904;2023-12-07T00:14:38;100592.44;;;11.22;100.00
11523;BME280;70090;43.208;27.904;2023-12-07T00:17:05;100599.13;;;11.21;100.00
11523;BME280;70090;43.208;27.904;2023-12-07T00:19:32;100604.94;;;11.16;100.00
11523;BME280;70090;43.208;27.904;2023-12-07T00:21:59;100608.88;;;11.15;100.00
11523;BME280;70090;43.208;27.904;2023-12-07T00:24:27;100612.34;;;11.08;100.00
11523;BME280;70090;43.208;27.904;2023-12-07T00:26:56;100606.41;;;11.06;100.00
11523;BME280;70090;43.208;27.904;2023-12-07T00:29:23;100616.63;;;11.02;100.00
11523;BME280;70090;43.208;27.904;2023-12-07T00:31:50;100597.69;;;11.01;100.00
11523;BME280;70090;43.208;27.904;2023-12-07T00:34:17;100604.75;;;10.98;100.00
11523;BME280;70090;43.208;27.904;2023-12-07T00:36:44;100606.34;;;10.99;100.00
11523;BME280;70090;43.208;27.904;2023-12-07T00:39:11;100612.69;;;11.03;100.00
11523;BME280;70090;43.208;27.904;2023-12-07T00:41:40;100607.19;;;11.03;100.00
11523;BME280;70090;43.208;27.904;2023-12-07T00:44:07;100609.94;;;11.03;100.00
11523;BME280;70090;43.208;27.904;2023-12-07T00:46:34;100615.06;;;11.05;100.00
11523;BME280;70090;43.208;27.904;2023-12-07T00:49:00;100618.22;;;11.07;100.00
11523;BME280;70090;43.208;27.904;2023-12-07T00:51:27;100612.75;;;11.10;100.00
11523;BME280;70090;43.208;27.904;2023-12-07T00:53:54;100612.72;;;11.07;100.00
11523;BME280;70090;43.208;27.904;2023-12-07T00:56:21;100614.28;;;11.04;100.00
11523;BME280;70090;43.208;27.904;2023-12-07T00:58:50;100612.72;;;11.07;100.00
11523;BME280;70090;43.208;27.904;2023-12-07T01:01:17;100610.00;;;11.10;100.00
11523;BME280;70090;43.208;27.904;2023-12-07T01:03:44;100605.72;;;11.13;100.00
11523;BME280;70090;43.208;27.904;2023-12-07T01:06:11;100597.91;;;11.18;100.00
11523;BME280;70090;43.208;27.904;2023-12-07T01:08:39;100604.16;;;11.15;100.00
11523;BME280;70090;43.208;27.904;2023-12-07T01:11:07;100599.44;;;11.16;100.00
11523;BME280;70090;43.208;27.904;2023-12-07T01:13:34;100598.63;;;11.12;100.00
11523;BME280;70090;43.208;27.904;2023-12-07T01:16:03;100595.09;;;11.15;100.00
11523;BME280;70090;43.208;27.904;2023-12-07T01:18:30;100598.69;;;11.19;100.00
11523;BME280;70090;43.208;27.904;2023-12-07T01:20:58;100592.78;;;11.20;100.00
11523;BME280;70090;43.208;27.904;2023-12-07T01:23:25;100593.59;;;11.21;100.00
11523;BME280;70090;43.208;27.904;2023-12-07T01:25:52;100595.97;;;11.22;100.00
11523;BME280;70090;43.208;27.904;2023-12-07T01:28:19;100597.47;;;11.16;100.00
11523;BME280;70090;43.208;27.904;2023-12-07T01:30:46;100599.38;;;11.12;100.00
11523;BME280;70090;43.208;27.904;2023-12-07T01:33:14;100585.88;;;11.00;100.00
11523;BME280;70090;43.208;27.904;2023-12-07T01:35:42;100600.16;;;11.09;100.00
11523;BME280;70090;43.208;27.904;2023-12-07T01:38:09;100596.16;;;11.03;100.00
11523;BME280;70090;43.208;27.904;2023-12-07T01:40:36;100595.00;;;11.04;100.00
11523;BME280;70090;43.208;27.904;2023-12-07T01:43:03;100592.25;;;11.04;100.00
11523;BME280;70090;43.208;27.904;2023-12-07T01:45:30;100592.25;;;11.04;100.00
11523;BME280;70090;43.208;27.904;2023-12-07T01:47:57;100594.22;;;11.07;100.00
11523;BME280;70090;43.208;27.904;2023-12-07T01:50:27;100595.81;;;11.08;100.00
11523;BME280;70090;43.208;27.904;2023-12-07T01:53:01;100588.72;;;11.07;100.00
11523;BME280;70090;43.208;27.904;2023-12-07T01:55:28;100589.06;;;11.02;100.00
11523;BME280;70090;43.208;27.904;2023-12-07T01:57:58;100602.91;;;11.09;100.00
11523;BME280;70090;43.208;27.904;2023-12-07T02:00:26;100600.97;;;11.10;100.00
11523;BME280;70090;43.208;27.904;2023-12-07T02:02:54;100601.69;;;11.03;100.00
11523;BME280;70090;43.208;27.904;2023-12-07T02:05:22;100601.69;;;11.07;100.00
11523;BME280;70090;43.208;27.904;2023-12-07T02:07:50;100606.34;;;10.99;100.00
11523;BME280;70090;43.208;27.904;2023-12-07T02:10:18;100602.00;;;10.98;100.00
11523;BME280;70090;43.208;27.904;2023-12-07T02:12:46;100598.41;;;10.94;100.00
11523;BME280;70090;43.208;27.904;2023-12-07T02:15:14;100602.81;;;10.99;100.00
11523;BME280;70090;43.208;27.904;2023-12-07T02:17:49;100607.09;;;10.96;100.00
11523;BME280;70090;43.208;27.904;2023-12-07T02:20:21;100604.28;;;10.93;100.00
11523;BME280;70090;43.208;27.904;2023-12-07T02:22:53;100609.75;;;10.89;100.00
11523;BME280;70090;43.208;27.904;2023-12-07T02:25:24;100618.44;;;10.91;100.00
11523;BME280;70090;43.208;27.904;2023-12-07T02:27:53;100607.75;;;10.86;100.00
11523;BME280;70090;43.208;27.904;2023-12-07T02:30:20;100603.38;;;10.82;100.00
11523;BME280;70090;43.208;27.904;2023-12-07T02:32:48;100602.25;;;10.86;100.00
11523;BME280;70090;43.208;27.904;2023-12-07T02:35:15;100606.97;;;10.86;100.00
11523;BME280;70090;43.208;27.904;2023-12-07T02:37:44;100614.84;;;10.87;100.00
11523;BME280;70090;43.208;27.904;2023-12-07T02:40:13;100612.94;;;10.91;100.00
11523;BME280;70090;43.208;27.904;2023-12-07T02:42:43;100613.34;;;10.93;100.00
11523;BME280;70090;43.208;27.904;2023-12-07T02:45:12;100608.13;;;10.85;100.00
11523;BME280;70090;43.208;27.904;2023-12-07T02:47:40;100613.25;;;10.86;100.00
11523;BME280;70090;43.208;27.904;2023-12-07T02:50:09;100614.94;;;10.94;100.00
11523;BME280;70090;43.208;27.904;2023-12-07T02:52:36;100623.50;;;10.89;100.00
11523;BME280;70090;43.208;27.904;2023-12-07T02:55:04;100627.03;;;10.86;100.00
11523;BME280;70090;43.208;27.904;2023-12-07T02:57:31;100621.09;;;10.84;100.00
11523;BME280;70090;43.208;27.904;2023-12-07T02:59:59;100617.09;;;10.78;100.00
11523;BME280;70090;43.208;27.904;2023-12-07T03:02:28;100622.38;;;10.61;100.00
11523;BME280;70090;43.208;27.904;2023-12-07T03:04:55;100622.78;;;10.63;100.00
11523;BME280;70090;43.208;27.904;2023-12-07T03:07:23;100609.81;;;10.63;100.00
11523;BME280;70090;43.208;27.904;2023-12-07T03:09:50;100620.84;;;10.63;100.00
11523;BME280;70090;43.208;27.904;2023-12-07T03:12:17;100623.16;;;10.61;100.00
11523;BME280;70090;43.208;27.904;2023-12-07T03:14:44;100619.91;;;10.52;100.00
11523;BME280;70090;43.208;27.904;2023-12-07T03:17:11;100629.78;;;10.57;100.00
11523;BME280;70090;43.208;27.904;2023-12-07T03:19:41;100632.06;;;10.51;100.00
11523;BME280;70090;43.208;27.904;2023-12-07T03:22:08;100632.44;;;10.50;100.00
11523;BME280;70090;43.208;27.904;2023-12-07T03:24:36;100629.38;;;10.55;100.00
11523;BME280;70090;43.208;27.904;2023-12-07T03:27:04;100630.78;;;10.45;100.00
11523;BME280;70090;43.208;27.904;2023-12-07T03:29:31;100630.78;;;10.45;100.00
11523;BME280;70090;43.208;27.904;2023-12-07T03:31:58;100631.59;;;10.46;100.00
11523;BME280;70090;43.208;27.904;2023-12-07T03:34:25;100629.31;;;10.51;100.00
11523;BME280;70090;43.208;27.904;2023-12-07T03:36:54;100625.34;;;10.49;100.00
11523;BME280;70090;43.208;27.904;2023-12-07T03:39:21;100630.50;;;10.50;100.00
11523;BME280;70090;43.208;27.904;2023-12-07T03:41:48;100630.50;;;10.50;100.00
11523;BME280;70090;43.208;27.904;2023-12-07T03:44:15;100631.00;;;10.59;100.00
11523;BME280;70090;43.208;27.904;2023-12-07T03:46:42;100624.75;;;10.62;100.00
11523;BME280;70090;43.208;27.904;2023-12-07T03:49:09;100628.66;;;10.61;100.00
11523;BME280;70090;43.208;27.904;2023-12-07T03:51:37;100628.94;;;10.82;100.00
11523;BME280;70090;43.208;27.904;2023-12-07T03:54:06;100627.03;;;10.86;100.00
11523;BME280;70090;43.208;27.904;2023-12-07T03:56:33;100618.66;;;10.76;100.00
11523;BME280;70090;43.208;27.904;2023-12-07T03:59:00;100626.09;;;10.75;100.00
11523;BME280;70090;43.208;27.904;2023-12-07T04:01:28;100628.84;;;10.75;100.00
11523;BME280;70090;43.208;27.904;2023-12-07T04:03:56;100642.09;;;10.66;100.00
11523;BME280;70090;43.208;27.904;2023-12-07T04:06:24;100638.94;;;10.64;100.00
11523;BME280;70090;43.208;27.904;2023-12-07T04:08:52;100637.41;;;10.67;100.00
11523;BME280;70090;43.208;27.904;2023-12-07T04:11:21;100651.53;;;10.65;100.00
11523;BME280;70090;43.208;27.904;2023-12-07T04:13:48;100650.28;;;10.59;100.00
11523;BME280;70090;43.208;27.904;2023-12-07T04:16:15;100655.06;;;10.66;100.00
11523;BME280;70090;43.208;27.904;2023-12-07T04:18:42;100646.84;;;10.69;100.00
11523;BME280;70090;43.208;27.904;2023-12-07T04:21:09;100653.81;;;10.60;100.00
11523;BME280;70090;43.208;27.904;2023-12-07T04:23:36;100656.84;;;10.51;100.00
11523;BME280;70090;43.208;27.904;2023-12-07T04:26:03;100653.59;;;10.46;100.00
11523;BME280;70090;43.208;27.904;2023-12-07T04:28:32;100663.91;;;10.26;100.00
11523;BME280;70090;43.208;27.904;2023-12-07T04:30:59;100660.19;;;10.15;100.00
11523;BME280;70090;43.208;27.904;2023-12-07T04:33:26;100658.50;;;10.07;100.00
11523;BME280;70090;43.208;27.904;2023-12-07T04:35:54;100660.69;;;9.98;100.00
11523;BME280;70090;43.208;27.904;2023-12-07T04:38:21;100665.28;;;9.91;100.00
11523;BME280;70090;43.208;27.904;2023-12-07T04:40:48;100665.94;;;9.84;100.00
11523;BME280;70090;43.208;27.904;2023-12-07T04:43:15;100669.41;;;9.81;100.00
11523;BME280;70090;43.208;27.904;2023-12-07T04:45:43;100664.16;;;9.73;100.00
11523;BME280;70090;43.208;27.904;2023-12-07T04:48:10;100665.88;;;9.59;100.00
11523;BME280;70090;43.208;27.904;2023-12-07T04:50:37;100665.72;;;9.52;100.00
11523;BME280;70090;43.208;27.904;2023-12-07T04:53:04;100665.31;;;9.50;100.00
11523;BME280;70090;43.208;27.904;2023-12-07T04:55:31;100667.28;;;9.49;100.00
11523;BME280;70090;43.208;27.904;2023-12-07T04:57:58;100662.88;;;9.45;100.00
11523;BME280;70090;43.208;27.904;2023-12-07T05:00:25;100667.50;;;9.41;100.00
11523;BME280;70090;43.208;27.904;2023-12-07T05:02:55;100670.97;;;9.38;100.00
11523;BME280;70090;43.208;27.904;2023-12-07T05:05:22;100664.19;;;9.32;100.00
11523;BME280;70090;43.208;27.904;2023-12-07T05:07:50;100665.47;;;9.38;100.00
11523;BME280;70090;43.208;27.904;2023-12-07T05:10:17;100672.88;;;9.34;100.00
11523;BME280;70090;43.208;27.904;2023-12-07T05:12:44;100675.31;;;9.39;100.00
11523;BME280;70090;43.208;27.904;2023-12-07T05:15:11;100678.47;;;9.41;100.00
11523;BME280;70090;43.208;27.904;2023-12-07T05:17:38;100679.63;;;9.40;100.00
11523;BME280;70090;43.208;27.904;2023-12-07T05:20:08;100675.97;;;9.32;100.00
11523;BME280;70090;43.208;27.904;2023-12-07T05:22:35;100677.78;;;9.25;100.00
11523;BME280;70090;43.208;27.904;2023-12-07T05:25:02;100671.19;;;9.29;100.00
11523;BME280;70090;43.208;27.904;2023-12-07T05:27:30;100676.03;;;9.17;100.00
11523;BME280;70090;43.208;27.904;2023-12-07T05:29:57;100679.59;;;9.17;100.00
11523;BME280;70090;43.208;27.904;2023-12-07T05:32:24;100672.13;;;9.18;100.00
11523;BME280;70090;43.208;27.904;2023-12-07T05:34:51;100675.78;;;9.22;100.00
11523;BME280;70090;43.208;27.904;2023-12-07T05:37:19;100669.53;;;9.25;100.00
11523;BME280;70090;43.208;27.904;2023-12-07T05:39:46;100679.06;;;9.31;100.00
11523;BME280;70090;43.208;27.904;2023-12-07T05:42:14;100676.31;;;9.31;100.00
11523;BME280;70090;43.208;27.904;2023-12-07T05:44:41;100668.81;;;9.28;100.00
11523;BME280;70090;43.208;27.904;2023-12-07T05:47:08;100668.06;;;9.31;100.00
11523;BME280;70090;43.208;27.904;2023-12-07T05:49:36;100677.19;;;9.16;100.00
11523;BME280;70090;43.208;27.904;2023-12-07T05:52:03;100674.88;;;9.18;100.00
11523;BME280;70090;43.208;27.904;2023-12-07T05:54:32;100678.06;;;9.20;100.00
11523;BME280;70090;43.208;27.904;2023-12-07T05:56:59;100686.59;;;9.15;100.00
11523;BME280;70090;43.208;27.904;2023-12-07T05:59:27;100690.56;;;9.17;100.00
11523;BME280;70090;43.208;27.904;2023-12-07T06:01:56;100692.34;;;9.10;100.00
11523;BME280;70090;43.208;27.904;2023-12-07T06:04:23;100692.31;;;9.06;100.00
11523;BME280;70090;43.208;27.904;2023-12-07T06:06:50;100694.91;;;8.99;100.00
11523;BME280;70090;43.208;27.904;2023-12-07T06:09:17;100690.31;;;8.88;100.00
11523;BME280;70090;43.208;27.904;2023-12-07T06:11:46;100693.97;;;8.92;100.00
11523;BME280;70090;43.208;27.904;2023-12-07T06:14:13;100693.97;;;8.92;100.00
11523;BME280;70090;43.208;27.904;2023-12-07T06:16:40;100697.94;;;8.94;100.00
11523;BME280;70090;43.208;27.904;2023-12-07T06:19:07;100703.47;;;8.98;100.00
11523;BME280;70090;43.208;27.904;2023-12-07T06:21:34;100696.91;;;9.02;100.00
11523;BME280;70090;43.208;27.904;2023-12-07T06:24:01;100700.22;;;8.92;100.00
11523;BME280;70090;43.208;27.904;2023-12-07T06:26:28;100697.13;;;8.94;100.00
11523;BME280;70090;43.208;27.904;2023-12-07T06:28:57;100697.88;;;8.91;100.00
11523;BME280;70090;43.208;27.904;2023-12-07T06:31:24;100700.31;;;8.96;100.00
11523;BME280;70090;43.208;27.904;2023-12-07T06:33:52;100701.19;;;9.00;100.00
11523;BME280;70090;43.208;27.904;2023-12-07T06:36:20;100707.53;;;9.04;100.00
11523;BME280;70090;43.208;27.904;2023-12-07T06:38:47;100709.44;;;9.00;100.00
11523;BME280;70090;43.208;27.904;2023-12-07T06:41:14;100711.38;;;8.99;100.00
11523;BME280;70090;43.208;27.904;2023-12-07T06:43:42;100705.81;;;8.96;100.00
11523;BME280;70090;43.208;27.904;2023-12-07T06:46:11;100714.47;;;8.98;100.00
11523;BME280;70090;43.208;27.904;2023-12-07T06:48:38;100723.84;;;8.97;100.00
11523;BME280;70090;43.208;27.904;2023-12-07T06:51:05;100720.41;;;9.00;100.00
11523;BME280;70090;43.208;27.904;2023-12-07T06:53:32;100718.44;;;9.00;100.00
11523;BME280;70090;43.208;27.904;2023-12-07T06:55:59;100716.44;;;8.97;100.00
11523;BME280;70090;43.208;27.904;2023-12-07T06:58:28;100726.97;;;8.95;100.00
11523;BME280;70090;43.208;27.904;2023-12-07T07:00:55;100723.72;;;8.90;100.00
11523;BME280;70090;43.208;27.904;2023-12-07T07:03:24;100720.50;;;8.88;100.00
11523;BME280;70090;43.208;27.904;2023-12-07T07:05:53;100733.16;;;8.92;100.00
11523;BME280;70090;43.208;27.904;2023-12-07T07:08:20;100736.41;;;8.98;100.00
11523;BME280;70090;43.208;27.904;2023-12-07T07:10:47;100737.16;;;8.95;100.00
11523;BME280;70090;43.208;27.904;2023-12-07T07:13:14;100733.69;;;8.98;100.00
11523;BME280;70090;43.208;27.904;2023-12-07T07:15:43;100738.00;;;8.99;100.00
11523;BME280;70090;43.208;27.904;2023-12-07T07:18:10;100740.19;;;8.90;100.00
11523;BME280;70090;43.208;27.904;2023-12-07T07:20:39;100743.38;;;8.92;100.00
11523;BME280;70090;43.208;27.904;2023-12-07T07:23:06;100739.13;;;8.94;100.00
11523;BME280;70090;43.208;27.904;2023-12-07T07:25:34;100743.78;;;8.94;100.00
11523;BME280;70090;43.208;27.904;2023-12-07T07:28:01;100754.56;;;9.02;100.00
11523;BME280;70090;43.208;27.904;2023-12-07T07:30:28;100756.31;;;9.10;100.00
11523;BME280;70090;43.208;27.904;2023-12-07T07:32:56;100752.47;;;8.96;100.00
11523;BME280;70090;43.208;27.904;2023-12-07T07:35:23;100753.47;;;9.07;100.00
11523;BME280;70090;43.208;27.904;2023-12-07T07:37:52;100748.22;;;8.98;100.00
11523;BME280;70090;43.208;27.904;2023-12-07T07:40:19;100748.41;;;8.90;100.00
11523;BME280;70090;43.208;27.904;2023-12-07T07:42:46;100754.94;;;9.01;100.00
11523;BME280;70090;43.208;27.904;2023-12-07T07:45:14;100762.16;;;8.90;100.00
11523;BME280;70090;43.208;27.904;2023-12-07T07:47:41;100757.50;;;8.94;100.00
11523;BME280;70090;43.208;27.904;2023-12-07T07:50:09;100756.34;;;8.95;100.00
11523;BME280;70090;43.208;27.904;2023-12-07T07:52:37;100754.69;;;8.90;100.00
11523;BME280;70090;43.208;27.904;2023-12-07T07:55:08;100769.75;;;8.96;100.00
11523;BME280;70090;43.208;27.904;2023-12-07T07:57:36;100777.25;;;8.99;100.00
11523;BME280;70090;43.208;27.904;2023-12-07T08:00:04;100777.75;;;9.05;100.00
11523;BME280;70090;43.208;27.904;2023-12-07T08:02:34;100775.81;;;9.05;100.00
11523;BME280;70090;43.208;27.904;2023-12-07T08:05:01;100779.69;;;9.04;100.00
11523;BME280;70090;43.208;27.904;2023-12-07T08:07:28;100788.75;;;9.05;100.00
11523;BME280;70090;43.208;27.904;2023-12-07T08:09:55;100784.41;;;9.04;100.00
11523;BME280;70090;43.208;27.904;2023-12-07T08:12:24;100784.31;;;9.00;100.00
11523;BME280;70090;43.208;27.904;2023-12-07T08:14:51;100792.34;;;9.09;100.00
11523;BME280;70090;43.208;27.904;2023-12-07T08:17:18;100780.72;;;8.96;100.00
11523;BME280;70090;43.208;27.904;2023-12-07T08:19:46;100779.47;;;8.94;100.00
11523;BME280;70090;43.208;27.904;2023-12-07T08:22:14;100782.75;;;8.99;100.00
11523;BME280;70090;43.208;27.904;2023-12-07T08:24:41;100783.72;;;8.91;100.00
11523;BME280;70090;43.208;27.904;2023-12-07T08:27:08;100790.16;;;8.99;100.00
11523;BME280;70090;43.208;27.904;2023-12-07T08:29:36;100786.72;;;9.02;100.00
11523;BME280;70090;43.208;27.904;2023-12-07T08:32:04;100785.34;;;9.11;100.00
11523;BME280;70090;43.208;27.904;2023-12-07T08:34:31;100794.09;;;9.17;100.00
11523;BME280;70090;43.208;27.904;2023-12-07T08:36:58;100793.84;;;9.22;100.00
11523;BME280;70090;43.208;27.904;2023-12-07T08:39:25;100801.50;;;9.32;100.00
11523;BME280;70090;43.208;27.904;2023-12-07T08:41:52;100792.31;;;9.43;100.00
11523;BME280;70090;43.208;27.904;2023-12-07T08:44:19;100789.66;;;9.47;100.00
11523;BME280;70090;43.208;27.904;2023-12-07T08:46:48;100795.28;;;9.35;100.00
11523;BME280;70090;43.208;27.904;2023-12-07T08:49:15;100790.31;;;9.40;100.00
11523;BME280;70090;43.208;27.904;2023-12-07T08:51:42;100791.31;;;9.32;100.00
11523;BME280;70090;43.208;27.904;2023-12-07T08:54:10;100804.81;;;9.41;100.00
11523;BME280;70090;43.208;27.904;2023-12-07T08:56:37;100804.78;;;9.37;100.00
11523;BME280;70090;43.208;27.904;2023-12-07T08:59:06;100799.13;;;9.30;100.00
11523;BME280;70090;43.208;27.904;2023-12-07T09:01:35;100802.34;;;9.17;100.00
11523;BME280;70090;43.208;27.904;2023-12-07T09:04:04;100800.47;;;9.21;100.00
11523;BME280;70090;43.208;27.904;2023-12-07T09:06:31;100808.69;;;9.21;100.00
11523;BME280;70090;43.208;27.904;2023-12-07T09:08:58;100804.91;;;9.10;100.00
11523;BME280;70090;43.208;27.904;2023-12-07T09:11:25;100801.88;;;8.96;100.00
11523;BME280;70090;43.208;27.904;2023-12-07T09:13:54;100814.19;;;9.02;100.00
11523;BME280;70090;43.208;27.904;2023-12-07T09:16:21;100816.47;;;9.00;100.00
11523;BME280;70090;43.208;27.904;2023-12-07T09:18:48;100809.75;;;8.97;100.00
11523;BME280;70090;43.208;27.904;2023-12-07T09:21:17;100803.97;;;9.02;100.00
11523;BME280;70090;43.208;27.904;2023-12-07T09:23:44;100807.19;;;8.89;100.00
11523;BME280;70090;43.208;27.904;2023-12-07T09:26:11;100799.84;;;8.93;100.00
11523;BME280;70090;43.208;27.904;2023-12-07T09:28:38;100794.78;;;8.95;100.00
11523;BME280;70090;43.208;27.904;2023-12-07T09:31:06;100788.13;;;8.96;100.00
11523;BME280;70090;43.208;27.904;2023-12-07T09:33:36;100799.44;;;9.10;100.00
11523;BME280;70090;43.208;27.904;2023-12-07T09:36:04;100790.84;;;9.11;100.00
11523;BME280;70090;43.208;27.904;2023-12-07T09:38:36;100795.09;;;9.09;100.00
11523;BME280;70090;43.208;27.904;2023-12-07T09:41:03;100794.34;;;8.93;100.00
11523;BME280;70090;43.208;27.904;2023-12-07T09:43:31;100796.81;;;8.98;100.00
11523;BME280;70090;43.208;27.904;2023-12-07T09:45:58;100796.97;;;9.05;100.00
11523;BME280;70090;43.208;27.904;2023-12-07T09:48:26;100793.63;;;8.96;100.00
11523;BME280;70090;43.208;27.904;2023-12-07T09:50:55;100804.13;;;8.75;100.00
11523;BME280;70090;43.208;27.904;2023-12-07T09:53:22;100801.13;;;8.49;100.00
11523;BME280;70090;43.208;27.904;2023-12-07T09:55:51;100792.63;;;8.23;100.00
11523;BME280;70090;43.208;27.904;2023-12-07T09:58:18;100815.28;;;8.20;100.00
11523;BME280;70090;43.208;27.904;2023-12-07T10:00:47;100803.16;;;8.21;100.00
11523;BME280;70090;43.208;27.904;2023-12-07T10:03:20;100798.59;;;8.13;100.00
11523;BME280;70090;43.208;27.904;2023-12-07T10:05:55;100803.09;;;8.05;100.00
11523;BME280;70090;43.208;27.904;2023-12-07T10:08:27;100785.59;;;7.94;100.00
11523;BME280;70090;43.208;27.904;2023-12-07T10:11:06;100795.41;;;8.11;100.00
11523;BME280;70090;43.208;27.904;2023-12-07T10:13:35;100795.63;;;8.18;100.00
11523;BME280;70090;43.208;27.904;2023-12-07T10:16:07;100795.03;;;8.24;100.00
11523;BME280;70090;43.208;27.904;2023-12-07T10:18:35;100805.91;;;8.21;100.00
11523;BME280;70090;43.208;27.904;2023-12-07T10:21:03;100804.41;;;8.23;100.00
11523;BME280;70090;43.208;27.904;2023-12-07T10:23:30;100799.69;;;8.24;100.00
11523;BME280;70090;43.208;27.904;2023-12-07T10:25:58;100804.50;;;8.27;100.00
11523;BME280;70090;43.208;27.904;2023-12-07T10:28:28;100805.47;;;8.34;100.00
11523;BME280;70090;43.208;27.904;2023-12-07T10:30:56;100801.22;;;8.21;100.00
11523;BME280;70090;43.208;27.904;2023-12-07T10:33:26;100808.19;;;8.19;100.00
11523;BME280;70090;43.208;27.904;2023-12-07T10:35:53;100796.88;;;8.20;100.00
11523;BME280;70090;43.208;27.904;2023-12-07T10:38:20;100808.88;;;8.16;100.00
11523;BME280;70090;43.208;27.904;2023-12-07T10:40:49;100797.81;;;8.12;100.00
11523;BME280;70090;43.208;27.904;2023-12-07T10:43:19;100804.56;;;8.15;100.00
11523;BME280;70090;43.208;27.904;2023-12-07T10:45:48;100797.72;;;8.09;100.00
11523;BME280;70090;43.208;27.904;2023-12-07T10:48:16;100803.91;;;8.06;100.00
11523;BME280;70090;43.208;27.904;2023-12-07T10:50:46;100811.69;;;8.04;100.00
11523;BME280;70090;43.208;27.904;2023-12-07T10:53:21;100794.16;;;7.93;100.00
11523;BME280;70090;43.208;27.904;2023-12-07T10:55:55;100809.81;;;7.92;100.00
11523;BME280;70090;43.208;27.904;2023-12-07T10:58:22;100804.50;;;7.84;100.00
11523;BME280;70090;43.208;27.904;2023-12-07T11:00:52;100816.88;;;7.93;100.00
11523;BME280;70090;43.208;27.904;2023-12-07T11:03:20;100820.44;;;7.94;100.00
11523;BME280;70090;43.208;27.904;2023-12-07T11:05:48;100818.88;;;7.81;100.00
11523;BME280;70090;43.208;27.904;2023-12-07T11:08:21;100823.81;;;7.75;100.00
11523;BME280;70090;43.208;27.904;2023-12-07T11:10:58;100831.47;;;7.70;100.00
11523;BME280;70090;43.208;27.904;2023-12-07T11:13:29;100828.78;;;7.58;100.00
11523;BME280;70090;43.208;27.904;2023-12-07T11:15:59;100832.72;;;7.45;100.00
11523;BME280;70090;43.208;27.904;2023-12-07T11:18:26;100824.75;;;7.40;100.00
11523;BME280;70090;43.208;27.904;2023-12-07T11:20:54;100840.16;;;7.32;100.00
11523;BME280;70090;43.208;27.904;2023-12-07T11:23:22;100838.00;;;7.26;100.00
11523;BME280;70090;43.208;27.904;2023-12-07T11:25:52;100836.53;;;7.28;100.00
11523;BME280;70090;43.208;27.904;2023-12-07T11:28:34;100843.69;;;7.33;100.00
11523;BME280;70090;43.208;27.904;2023-12-07T11:31:03;100837.09;;;7.22;100.00
11523;BME280;70090;43.208;27.904;2023-12-07T11:33:30;100848.97;;;7.14;100.00
11523;BME280;70090;43.208;27.904;2023-12-07T11:36:05;100843.16;;;7.16;100.00
11523;BME280;70090;43.208;27.904;2023-12-07T11:38:33;100845.47;;;7.14;100.00
11523;BME280;70090;43.208;27.904;2023-12-07T11:41:00;100842.84;;;6.93;100.00
11523;BME280;70090;43.208;27.904;2023-12-07T11:43:40;100840.09;;;6.93;100.00
11523;BME280;70090;43.208;27.904;2023-12-07T11:46:12;100837.16;;;6.98;100.00
11523;BME280;70090;43.208;27.904;2023-12-07T11:48:46;100850.34;;;6.96;100.00
11523;BME280;70090;43.208;27.904;2023-12-07T11:51:15;100846.03;;;6.95;100.00
11523;BME280;70090;43.208;27.904;2023-12-07T11:53:43;100860.06;;;6.94;100.00
11523;BME280;70090;43.208;27.904;2023-12-07T11:56:11;100836.47;;;6.77;100.00
11523;BME280;70090;43.208;27.904;2023-12-07T11:58:39;100837.72;;;6.80;100.00
11523;BME280;70090;43.208;27.904;2023-12-07T12:01:06;100841.84;;;6.62;100.00
11523;BME280;70090;43.208;27.904;2023-12-07T12:03:35;100837.72;;;6.56;100.00
11523;BME280;70090;43.208;27.904;2023-12-07T12:06:04;100849.78;;;6.55;100.00
11523;BME280;70090;43.208;27.904;2023-12-07T12:08:33;100843.06;;;6.52;100.00
11523;BME280;70090;43.208;27.904;2023-12-07T12:11:00;100850.59;;;6.55;100.00
11523;BME280;70090;43.208;27.904;2023-12-07T12:13:28;100851.72;;;6.54;100.00
11523;BME280;70090;43.208;27.904;2023-12-07T12:15:56;100842.41;;;6.55;100.00
11523;BME280;70090;43.208;27.904;2023-12-07T12:18:23;100846.94;;;6.51;100.00
11523;BME280;70090;43.208;27.904;2023-12-07T12:20:53;100838.28;;;6.49;100.00
11523;BME280;70090;43.208;27.904;2023-12-07T12:23:21;100847.81;;;6.43;100.00
11523;BME280;70090;43.208;27.904;2023-12-07T12:25:48;100847.16;;;6.46;100.00
11523;BME280;70090;43.208;27.904;2023-12-07T12:28:16;100849.41;;;6.32;100.00
11523;BME280;70090;43.208;27.904;2023-12-07T12:30:45;100848.06;;;6.38;100.00
11523;BME280;70090;43.208;27.904;2023-12-07T12:33:13;100855.25;;;6.43;100.00
11523;BME280;70090;43.208;27.904;2023-12-07T12:35:40;100837.81;;;6.35;100.00
11523;BME280;70090;43.208;27.904;2023-12-07T12:38:13;100847.81;;;6.31;100.00
11523;BME280;70090;43.208;27.904;2023-12-07T12:40:40;100847.16;;;6.34;100.00